Time;durP1;ratioP1;P1;durP2;ratioP2;P2;SDS_P1;SDS_P2;PMS_P1;PMS_P2;Temp;Humidity;BMP_temperature;BMP_pressure;BME280_temperature;BME280_humidity;BME280_pressure;Samples;Min_cycle;Max_cycle;Signal;HPM_P1;HPM_P2
2022/06/19 00:01:06;;;;;;;0.00;0.00;;;;;;;13.04;53.28;101382.22;7354225;19;20009;-62
2022/06/19 00:03:35;;;;;;;0.00;0.00;;;;;;;13.02;53.87;101389.22;7356104;19;20014;-62
2022/06/19 00:06:01;;;;;;;0.00;0.00;;;;;;;12.98;53.55;101377.97;7354556;19;20734;-61
2022/06/19 00:08:30;;;;;;;0.00;0.00;;;;;;;12.98;53.66;101377.13;7356157;19;20025;-62
2022/06/19 00:10:56;;;;;;;0.00;0.00;;;;;;;12.93;53.66;101374.59;7350580;19;20022;-62
2022/06/19 00:13:22;;;;;;;0.00;0.00;;;;;;;12.94;53.95;101375.44;7355920;19;21418;-61
2022/06/19 00:15:47;;;;;;;0.00;0.00;;;;;;;12.91;54.48;101365.88;7360655;19;20029;-61
2022/06/19 00:18:13;;;;;;;0.00;0.00;;;;;;;12.90;54.39;101369.41;7360184;19;20126;-62
2022/06/19 00:20:39;;;;;;;0.00;0.00;;;;;;;12.88;54.36;101365.09;7359629;19;20010;-59
2022/06/19 00:23:04;;;;;;;0.00;0.00;;;;;;;12.79;54.32;101350.44;7359481;19;20032;-61
2022/06/19 00:25:30;;;;;;;0.00;0.00;;;;;;;12.76;54.10;101339.13;7359942;19;20037;-62
2022/06/19 00:27:55;;;;;;;0.00;0.00;;;;;;;12.83;54.93;101356.47;7360197;19;20734;-61
2022/06/19 00:30:21;;;;;;;0.00;0.00;;;;;;;12.80;55.37;101351.28;7361947;19;20020;-61
2022/06/19 00:32:46;;;;;;;0.00;0.00;;;;;;;12.75;55.32;101342.66;7359679;19;21129;-61
2022/06/19 00:35:12;;;;;;;0.00;0.00;;;;;;;12.74;55.67;101341.81;7360918;19;20014;-62
2022/06/19 00:37:38;;;;;;;0.00;0.00;;;;;;;12.69;55.95;101336.66;7361451;19;20007;-62
2022/06/19 00:40:06;;;;;;;0.00;0.00;;;;;;;12.70;55.93;101346.22;7358996;19;20015;-62
2022/06/19 00:42:31;;;;;;;0.00;0.00;;;;;;;12.67;56.28;101330.59;7359445;19;20442;-61
2022/06/19 00:44:57;;;;;;;0.00;0.00;;;;;;;12.66;56.08;101327.97;7361093;19;20038;-61
2022/06/19 00:47:29;;;;;;;0.00;0.00;;;;;;;12.63;55.59;101323.69;7360927;19;20033;-62
2022/06/19 00:50:24;;;;;;;0.00;0.00;;;;;;;12.65;53.80;101324.50;7360244;19;20580;-62
2022/06/19 00:52:50;;;;;;;0.00;0.00;;;;;;;12.56;56.35;101322.06;7258226;19;2004529;-61
2022/06/19 00:55:37;;;;;;;0.00;0.00;;;;;;;12.62;54.71;101332.44;7358847;19;20051;-61
2022/06/19 00:58:10;;;;;;;0.00;0.00;;;;;;;12.61;56.17;101328.06;7360330;19;20818;-62
2022/06/19 01:00:36;;;;;;;0.05;0.05;;;;;;;12.56;56.96;101327.31;7358034;19;20017;-62
2022/06/19 01:03:29;;;;;;;0.00;0.00;;;;;;;12.59;54.53;101329.88;7358366;19;20881;-62
2022/06/19 01:05:55;;;;;;;0.00;0.00;;;;;;;12.57;57.27;101328.16;7256358;19;2004580;-63
2022/06/19 01:08:20;;;;;;;0.00;0.00;;;;;;;12.54;57.59;101323.88;7356849;19;20007;-63
2022/06/19 01:10:49;;;;;;;0.00;0.00;;;;;;;12.53;57.41;101316.91;7359105;19;20010;-62
2022/06/19 01:13:17;;;;;;;0.00;0.00;;;;;;;12.51;57.78;101317.81;7358727;19;20006;-61
2022/06/19 01:15:43;;;;;;;0.00;0.00;;;;;;;12.49;57.67;101312.63;7360198;19;20022;-63
2022/06/19 01:18:11;;;;;;;0.00;0.00;;;;;;;12.50;57.58;101306.50;7360076;19;20002;-60
2022/06/19 01:20:39;;;;;;;0.00;0.00;;;;;;;12.43;57.74;101304.91;7359066;19;20434;-61
2022/06/19 01:23:11;;;;;;;0.00;0.00;;;;;;;12.48;57.37;101318.78;7359018;19;20010;-62
2022/06/19 01:25:39;;;;;;;0.00;0.00;;;;;;;12.46;57.72;101325.78;7358541;19;20913;-63
2022/06/19 01:31:21;;;;;;;0.00;0.00;;;;;;;12.44;57.17;101311.88;7256378;19;2004242;-63
2022/06/19 01:33:50;;;;;;;0.00;0.00;;;;;;;12.41;58.26;101298.81;7359065;19;20568;-62
2022/06/19 01:36:19;;;;;;;0.00;0.00;;;;;;;12.42;58.78;101303.19;7357256;19;20035;-62
2022/06/19 01:38:49;;;;;;;0.00;0.00;;;;;;;12.40;58.87;101295.34;7359406;19;20013;-62
2022/06/19 01:41:21;;;;;;;0.00;0.00;;;;;;;12.43;59.09;101294.44;7357278;19;20856;-60
2022/06/19 01:43:47;;;;;;;0.00;0.00;;;;;;;12.42;58.77;101293.56;7359442;19;20022;-63
2022/06/19 01:46:17;;;;;;;0.00;0.00;;;;;;;12.36;58.84;101287.56;7357426;19;20104;-62
2022/06/19 01:48:43;;;;;;;0.00;0.00;;;;;;;12.43;58.82;101302.28;7360573;19;20030;-62
2022/06/19 01:51:09;;;;;;;0.08;0.08;;;;;;;12.43;58.98;101307.53;7360263;19;20010;-62
2022/06/19 01:53:43;;;;;;;0.08;0.08;;;;;;;12.46;58.29;101310.06;7357609;19;20014;-61
2022/06/19 01:56:10;;;;;;;0.00;0.00;;;;;;;12.42;59.22;101304.03;7358477;19;20010;-63
2022/06/19 01:58:40;;;;;;;0.00;0.00;;;;;;;12.43;59.42;101294.44;7349611;19;20030;-61
2022/06/19 02:01:08;;;;;;;0.00;0.00;;;;;;;12.44;59.68;101285.66;7362427;19;20018;-63
2022/06/19 02:03:50;;;;;;;0.10;0.10;;;;;;;12.46;58.09;101282.09;7357469;19;20042;-60
2022/06/19 02:06:27;;;;;;;0.00;0.00;;;;;;;12.47;58.76;101290.84;7359801;19;20011;-63
2022/06/19 02:08:52;;;;;;;0.00;0.00;;;;;;;12.45;59.86;101283.00;7363623;19;20764;-62
2022/06/19 02:11:20;;;;;;;0.00;0.00;;;;;;;12.45;60.31;101282.16;7360389;19;20530;-62
2022/06/19 02:13:48;;;;;;;0.10;0.10;;;;;;;12.45;59.86;101288.25;7361165;19;20010;-62
2022/06/19 02:16:17;;;;;;;0.00;0.00;;;;;;;12.46;60.38;101281.25;7357009;19;20051;-61
2022/06/19 02:18:45;;;;;;;0.00;0.00;;;;;;;12.40;60.51;101278.75;7361478;19;20022;-62
2022/06/19 02:21:19;;;;;;;0.00;0.00;;;;;;;12.46;60.15;101283.88;7365440;19;20006;-62
2022/06/19 02:23:45;;;;;;;0.10;0.10;;;;;;;12.46;60.63;101273.38;7366818;19;20066;-61
2022/06/19 02:26:12;;;;;;;0.00;0.00;;;;;;;12.44;60.82;101277.81;7369709;19;20046;-60
2022/06/19 02:28:41;;;;;;;0.00;0.00;;;;;;;12.49;61.21;101294.28;7366767;19;20010;-62
2022/06/19 02:31:07;;;;;;;0.00;0.00;;;;;;;12.45;61.06;101292.63;7368763;19;20074;-60
2022/06/19 02:33:38;;;;;;;0.00;0.00;;;;;;;12.52;61.20;101289.00;7367158;19;21532;-62
2022/06/19 02:36:32;;;;;;;0.00;0.00;;;;;;;12.59;59.21;101290.59;7366975;19;20028;-61
2022/06/19 02:39:00;;;;;;;0.10;0.10;;;;;;;12.61;61.47;101294.00;7265089;19;2004528;-60
2022/06/19 02:41:29;;;;;;;0.00;0.00;;;;;;;12.66;61.44;101291.31;7367693;19;20007;-62
2022/06/19 02:43:55;;;;;;;0.00;0.00;;;;;;;12.70;61.80;101292.97;7358240;19;21121;-62
2022/06/19 02:46:20;;;;;;;0.00;0.00;;;;;;;12.74;60.99;101289.38;7368419;19;20090;-63
2022/06/19 02:48:46;;;;;;;0.00;0.00;;;;;;;12.76;61.45;101276.25;7366424;19;20022;-61
2022/06/19 02:51:11;;;;;;;0.00;0.00;;;;;;;12.82;61.61;101281.34;7367331;19;20014;-61
2022/06/19 02:53:36;;;;;;;0.00;0.00;;;;;;;12.85;61.26;101281.28;7368230;19;20010;-63
2022/06/19 02:56:02;;;;;;;0.00;0.00;;;;;;;12.88;61.71;101275.97;7367594;19;20022;-63
2022/06/19 02:58:27;;;;;;;0.08;0.08;;;;;;;12.91;61.54;101275.88;7366146;19;20669;-62
2022/06/19 03:00:53;;;;;;;0.10;0.10;;;;;;;12.94;61.57;101266.19;7365732;19;20006;-62
2022/06/19 03:03:25;;;;;;;0.00;0.00;;;;;;;12.99;60.90;101287.06;7369007;19;20022;-62
2022/06/19 03:05:50;;;;;;;0.00;0.00;;;;;;;12.99;61.96;101284.44;7351648;19;20013;-62
2022/06/19 03:08:16;;;;;;;0.00;0.00;;;;;;;12.98;61.39;101282.72;7368491;19;20010;-62
2022/06/19 03:10:41;;;;;;;0.00;0.00;;;;;;;13.01;61.47;101280.03;7366735;19;20014;-62
2022/06/19 03:13:07;;;;;;;0.00;0.00;;;;;;;13.09;61.20;101288.59;7366468;19;20007;-62
2022/06/19 03:15:32;;;;;;;0.00;0.00;;;;;;;13.10;61.49;101287.69;7364293;19;20022;-61
2022/06/19 03:17:58;;;;;;;0.00;0.00;;;;;;;13.11;61.08;101291.16;7367256;19;20013;-61
2022/06/19 03:20:25;;;;;;;0.00;0.00;;;;;;;13.10;61.20;101295.53;7357992;19;20010;-61
2022/06/19 03:22:52;;;;;;;0.00;0.00;;;;;;;13.10;61.68;101294.69;7368881;19;20030;-59
2022/06/19 03:25:18;;;;;;;0.00;0.00;;;;;;;13.10;61.61;101299.94;7365030;19;20011;-61
2022/06/19 03:27:44;;;;;;;0.00;0.00;;;;;;;13.11;62.11;101294.63;7367854;19;20596;-61
2022/06/19 03:30:12;;;;;;;0.00;0.00;;;;;;;13.14;61.87;101288.47;7364423;19;20010;-62
2022/06/19 03:32:38;;;;;;;0.00;0.00;;;;;;;13.14;61.88;101294.56;7365581;19;20023;-61
2022/06/19 03:35:03;;;;;;;0.00;0.00;;;;;;;13.16;61.69;101287.53;7367162;19;20002;-62
2022/06/19 03:37:29;;;;;;;0.00;0.00;;;;;;;13.18;61.61;101293.63;7365913;19;20013;-61
2022/06/19 03:39:54;;;;;;;0.00;0.00;;;;;;;13.20;62.06;101294.41;7368431;19;20009;-61
2022/06/19 03:42:19;;;;;;;0.10;0.10;;;;;;;13.12;61.88;101280.63;7367867;19;20851;-62
2022/06/19 03:44:45;;;;;;;0.00;0.00;;;;;;;13.24;62.00;101296.13;7365870;19;20118;-62
2022/06/19 03:47:18;;;;;;;0.00;0.00;;;;;;;13.27;60.79;101284.66;7366102;19;20011;-62
2022/06/19 03:49:43;;;;;;;0.00;0.00;;;;;;;13.27;61.77;101278.56;7364578;19;20014;-62
2022/06/19 03:52:09;;;;;;;0.00;0.00;;;;;;;13.27;61.76;101275.94;7366193;19;20571;-62
2022/06/19 03:54:34;;;;;;;0.00;0.00;;;;;;;13.28;61.42;101280.28;7365994;19;20011;-63
2022/06/19 03:56:59;;;;;;;0.00;0.00;;;;;;;13.28;61.87;101280.28;7365783;19;20462;-63
2022/06/19 03:59:25;;;;;;;0.00;0.00;;;;;;;13.27;61.91;101279.41;7366935;19;20013;-63
2022/06/19 04:01:51;;;;;;;0.00;0.00;;;;;;;13.28;61.87;101285.53;7367223;19;20006;-63
2022/06/19 04:04:16;;;;;;;0.03;0.03;;;;;;;13.31;61.35;101280.22;7364551;19;20021;-63
2022/06/19 04:06:42;;;;;;;0.10;0.10;;;;;;;13.31;61.99;101270.59;7366596;19;20011;-62
2022/06/19 04:09:13;;;;;;;0.00;0.00;;;;;;;13.34;61.25;101275.78;7365024;19;20028;-63
2022/06/19 04:11:38;;;;;;;0.00;0.00;;;;;;;13.34;61.85;101273.16;7365649;19;20469;-62
2022/06/19 04:14:04;;;;;;;0.05;0.05;;;;;;;13.33;61.92;101262.66;7365543;19;20023;-63
2022/06/19 04:16:33;;;;;;;0.00;0.00;;;;;;;13.34;61.71;101253.94;7365626;19;20054;-61
2022/06/19 04:19:03;;;;;;;0.00;0.00;;;;;;;13.38;61.83;101255.53;7364933;19;20022;-59
2022/06/19 04:21:31;;;;;;;0.00;0.00;;;;;;;13.39;61.94;101246.81;7364081;19;20035;-60
2022/06/19 04:24:00;;;;;;;0.00;0.00;;;;;;;13.39;62.07;101241.56;7366086;19;20340;-59
2022/06/19 04:26:28;;;;;;;0.00;0.00;;;;;;;13.37;61.54;101243.34;7363347;19;20470;-63
2022/06/19 04:28:54;;;;;;;0.00;0.00;;;;;;;13.27;61.71;101220.88;7365414;19;20010;-61
2022/06/19 04:31:19;;;;;;;0.00;0.00;;;;;;;13.35;62.08;101237.28;7364143;19;20014;-62
2022/06/19 04:33:45;;;;;;;0.00;0.00;;;;;;;13.35;62.42;101234.66;7365039;19;20010;-62
2022/06/19 04:36:16;;;;;;;0.00;0.00;;;;;;;13.36;61.65;101218.88;7364393;19;20441;-62
2022/06/19 04:38:43;;;;;;;0.00;0.00;;;;;;;13.23;62.51;101189.50;7366424;19;20285;-62
2022/06/19 04:41:15;;;;;;;0.00;0.00;;;;;;;13.43;61.97;101199.47;7362507;19;20022;-61
2022/06/19 04:43:40;;;;;;;0.00;0.00;;;;;;;13.44;62.12;101190.69;7364937;19;20453;-62
2022/06/19 04:46:06;;;;;;;0.00;0.00;;;;;;;13.48;62.89;101191.44;7364299;19;20052;-61
2022/06/19 04:48:33;;;;;;;0.00;0.00;;;;;;;13.51;62.13;101183.50;7365138;19;20358;-62
2022/06/19 04:50:59;;;;;;;0.00;0.00;;;;;;;13.57;62.66;101187.72;7363369;19;20017;-61
2022/06/19 04:53:25;;;;;;;0.10;0.10;;;;;;;13.61;62.18;101184.97;7365126;19;20070;-62
2022/06/19 04:55:51;;;;;;;0.00;0.00;;;;;;;13.63;62.34;101182.28;7363823;19;20119;-62
2022/06/19 04:58:16;;;;;;;0.00;0.00;;;;;;;13.69;62.50;101190.88;7365408;19;20351;-61
2022/06/19 05:00:42;;;;;;;0.10;0.10;;;;;;;13.71;62.39;101177.69;7364065;19;20006;-62
2022/06/19 05:03:07;;;;;;;0.00;0.00;;;;;;;13.77;62.18;101190.66;7366160;19;20801;-62
2022/06/19 05:05:33;;;;;;;0.00;0.00;;;;;;;13.81;62.07;101180.94;7364515;19;20013;-62
2022/06/19 05:07:58;;;;;;;0.00;0.00;;;;;;;13.84;61.84;101192.22;7364964;19;20017;-61
2022/06/19 05:10:24;;;;;;;0.00;0.00;;;;;;;13.89;62.24;101194.69;7365010;19;20011;-62
2022/06/19 05:12:55;;;;;;;0.00;0.00;;;;;;;13.92;61.73;101197.22;7362349;19;20097;-62
2022/06/19 05:15:21;;;;;;;0.00;0.00;;;;;;;14.00;61.63;101208.38;7364247;19;20014;-62
2022/06/19 05:17:46;;;;;;;0.00;0.00;;;;;;;14.02;61.57;101212.69;7363947;19;20035;-63
2022/06/19 05:20:12;;;;;;;0.10;0.10;;;;;;;14.09;61.80;101210.75;7364247;19;20381;-62
2022/06/19 05:22:37;;;;;;;0.08;0.08;;;;;;;14.13;61.34;101215.00;7365007;19;20034;-62
2022/06/19 05:25:08;;;;;;;0.00;0.00;;;;;;;14.15;61.61;101213.19;7363030;19;20010;-62
2022/06/19 05:27:34;;;;;;;0.00;0.00;;;;;;;14.00;61.77;101179.50;7363480;19;20006;-62
2022/06/19 05:30:00;;;;;;;0.00;0.00;;;;;;;14.19;61.52;101203.44;7361959;19;20040;-61
2022/06/19 05:32:26;;;;;;;0.00;0.00;;;;;;;14.19;61.46;101214.84;7365291;19;20006;-63
2022/06/19 05:34:52;;;;;;;0.00;0.00;;;;;;;14.19;61.18;101220.09;7362078;19;20006;-61
2022/06/19 05:37:17;;;;;;;0.10;0.10;;;;;;;14.20;61.26;101227.06;7363743;19;20013;-62
2022/06/19 05:39:42;;;;;;;0.00;0.00;;;;;;;14.21;61.46;101238.41;7363148;19;20002;-62
2022/06/19 05:42:08;;;;;;;0.00;0.00;;;;;;;14.20;61.49;101232.31;7363750;19;20031;-62
2022/06/19 05:44:35;;;;;;;0.10;0.10;;;;;;;14.24;61.18;101247.09;7362767;19;20045;-62
2022/06/19 05:47:00;;;;;;;0.00;0.00;;;;;;;14.25;61.45;101251.41;7362896;19;20043;-62
2022/06/19 05:49:26;;;;;;;0.10;0.10;;;;;;;14.29;61.72;101244.28;7363111;19;20010;-63
2022/06/19 05:51:51;;;;;;;0.00;0.00;;;;;;;14.33;61.55;101252.94;7363841;19;20019;-62
2022/06/19 05:54:17;;;;;;;0.10;0.10;;;;;;;14.36;61.70;101263.38;7367840;19;20006;-63
2022/06/19 05:56:42;;;;;;;0.00;0.00;;;;;;;14.35;61.62;101254.66;7371012;19;20030;-62
2022/06/19 05:59:08;;;;;;;0.00;0.00;;;;;;;14.44;61.68;101279.75;7364487;19;19999;-62
2022/06/19 06:01:33;;;;;;;0.00;0.00;;;;;;;14.48;61.60;101290.19;7369473;19;20484;-61
2022/06/19 06:04:01;;;;;;;0.00;0.00;;;;;;;14.52;61.25;101290.97;7367303;19;20042;-62
2022/06/19 06:06:30;;;;;;;0.10;0.10;;;;;;;14.60;61.04;101294.22;7368092;19;20493;-61
2022/06/19 06:08:56;;;;;;;0.00;0.00;;;;;;;14.62;61.32;101292.41;7366486;19;20748;-60
2022/06/19 06:11:23;;;;;;;0.00;0.00;;;;;;;14.68;60.95;101297.47;7369833;19;20034;-62
2022/06/19 06:13:49;;;;;;;0.00;0.00;;;;;;;14.73;61.21;101300.81;7370172;19;20027;-62
2022/06/19 06:16:18;;;;;;;0.00;0.00;;;;;;;14.79;61.04;101295.38;7368282;19;20011;-63
2022/06/19 06:18:44;;;;;;;0.00;0.00;;;;;;;14.85;60.87;101294.34;7368646;19;20037;-63
2022/06/19 06:21:18;;;;;;;0.00;0.00;;;;;;;14.95;60.42;101302.78;7367405;19;20827;-62
2022/06/19 06:23:44;;;;;;;0.00;0.00;;;;;;;14.98;60.78;101315.84;7364330;19;20710;-63
2022/06/19 06:26:19;;;;;;;0.00;0.00;;;;;;;15.06;60.24;101319.13;7369540;19;20007;-62
2022/06/19 06:28:48;;;;;;;0.00;0.00;;;;;;;15.12;60.51;101318.91;7368502;19;20003;-62
2022/06/19 06:31:14;;;;;;;0.03;0.03;;;;;;;15.16;59.97;101331.06;7368311;19;20002;-63
2022/06/19 06:33:40;;;;;;;0.00;0.00;;;;;;;15.21;59.89;101329.16;7367982;19;20018;-62
2022/06/19 06:36:06;;;;;;;0.10;0.10;;;;;;;15.25;60.12;101330.75;7368263;19;20023;-63
2022/06/19 06:38:32;;;;;;;0.10;0.10;;;;;;;15.30;59.91;101328.84;7368380;19;20041;-63
2022/06/19 06:40:58;;;;;;;0.10;0.10;;;;;;;15.36;60.06;101321.66;7368146;19;20473;-62
2022/06/19 06:43:24;;;;;;;0.05;0.05;;;;;;;15.41;59.76;101317.09;7366834;19;20501;-63
2022/06/19 06:45:50;;;;;;;0.00;0.00;;;;;;;15.40;59.35;101297.81;7366099;19;20015;-63
2022/06/19 06:48:17;;;;;;;0.00;0.00;;;;;;;15.55;59.69;101322.78;7366971;19;22484;-63
2022/06/19 06:50:43;;;;;;;0.00;0.00;;;;;;;15.60;59.10;101326.09;7365836;19;20017;-63
2022/06/19 06:53:09;;;;;;;0.00;0.00;;;;;;;15.66;59.47;101314.53;7367382;19;20010;-63
2022/06/19 06:55:44;;;;;;;0.00;0.00;;;;;;;15.75;58.71;101324.75;7366465;19;20036;-63
2022/06/19 06:58:11;;;;;;;0.00;0.00;;;;;;;15.79;59.08;101321.97;7366749;19;20014;-63
2022/06/19 07:00:37;;;;;;;0.00;0.00;;;;;;;15.87;58.53;101323.50;7366879;19;20023;-63
2022/06/19 07:03:04;;;;;;;0.00;0.00;;;;;;;15.93;58.33;101323.28;7369212;19;20040;-63
2022/06/19 07:05:30;;;;;;;0.00;0.00;;;;;;;15.98;58.61;101326.63;7364619;19;20082;-61
2022/06/19 07:07:56;;;;;;;0.00;0.00;;;;;;;16.03;58.38;101324.69;7368644;19;20106;-63
2022/06/19 07:10:21;;;;;;;0.10;0.10;;;;;;;16.07;57.61;101323.66;7366975;19;20152;-63
2022/06/19 07:12:47;;;;;;;0.05;0.05;;;;;;;16.15;58.13;101311.06;7366858;19;20018;-63
2022/06/19 07:15:13;;;;;;;0.00;0.00;;;;;;;16.15;57.55;101295.25;7358933;19;20029;-63
2022/06/19 07:17:39;;;;;;;0.00;0.00;;;;;;;16.29;57.10;101300.03;7363275;19;20014;-63
2022/06/19 07:20:05;;;;;;;0.00;0.00;;;;;;;16.38;57.06;101296.19;7365956;19;20081;-63
2022/06/19 07:22:30;;;;;;;0.10;0.10;;;;;;;16.45;57.43;101301.16;7365811;19;21153;-62
2022/06/19 07:24:56;;;;;;;0.10;0.10;;;;;;;16.53;57.36;101292.97;7367385;19;20014;-62
2022/06/19 07:27:21;;;;;;;0.00;0.00;;;;;;;16.61;57.17;101297.03;7366585;19;20014;-63
2022/06/19 07:29:47;;;;;;;0.00;0.00;;;;;;;16.71;56.37;101294.03;7362602;19;20014;-63
2022/06/19 07:32:13;;;;;;;0.00;0.00;;;;;;;16.78;56.29;101299.06;7367593;19;20363;-62
2022/06/19 07:34:41;;;;;;;0.10;0.10;;;;;;;16.88;55.64;101304.84;7364349;19;20099;-61
2022/06/19 07:37:06;;;;;;;;;;;;;;;16.98;55.79;101289.47;7365954;19;20093;-60
2022/06/19 07:39:33;;;;;;;0.03;0.03;;;;;;;17.04;55.27;101297.19;7363967;19;20012;-63
2022/06/19 07:41:59;;;;;;;0.10;0.10;;;;;;;17.10;55.60;101289.88;7361632;19;20015;-61
2022/06/19 07:44:24;;;;;;;0.00;0.00;;;;;;;17.13;55.21;101283.59;7362823;19;20384;-62
2022/06/19 07:52:18;;;;;;;0.05;0.05;;;;;;;17.42;55.01;101278.91;7365471;19;20021;-63
2022/06/19 07:54:43;;;;;;;0.00;0.00;;;;;;;17.50;55.36;101293.50;7365813;19;20006;-63
2022/06/19 07:57:09;;;;;;;0.10;0.10;;;;;;;17.57;54.80;101296.75;7360491;19;20409;-63
2022/06/19 07:59:34;;;;;;;0.00;0.00;;;;;;;17.69;54.50;101301.50;7365206;19;20010;-63
2022/06/19 08:01:59;;;;;;;0.10;0.10;;;;;;;17.79;53.90;101304.63;7362743;19;20014;-63
2022/06/19 08:04:25;;;;;;;0.00;0.00;;;;;;;17.88;53.69;101305.09;7366341;19;20018;-63
2022/06/19 08:06:50;;;;;;;0.10;0.10;;;;;;;17.86;53.87;101296.38;7363358;19;20053;-63
2022/06/19 08:09:16;;;;;;;0.00;0.00;;;;;;;18.01;53.34;101310.72;7365950;19;20776;-63
2022/06/19 08:11:41;;;;;;;0.10;0.10;;;;;;;18.08;52.88;101306.00;7364014;19;20029;-62
2022/06/19 08:14:07;;;;;;;0.10;0.10;;;;;;;18.12;52.61;101302.31;7366357;19;20718;-63
2022/06/19 08:16:33;;;;;;;0.00;0.00;;;;;;;18.12;52.50;101291.72;7358297;19;20031;-63
2022/06/19 08:18:58;;;;;;;0.10;0.10;;;;;;;18.21;52.80;101298.41;7362905;19;20106;-62
2022/06/19 08:21:24;;;;;;;0.00;0.00;;;;;;;18.24;52.93;101283.25;7355466;19;20024;-62
2022/06/19 08:23:52;;;;;;;0.00;0.00;;;;;;;18.34;52.21;101287.19;7362418;19;20023;-62
2022/06/19 08:26:17;;;;;;;0.05;0.05;;;;;;;18.42;52.39;101279.75;7361448;19;20062;-63
2022/06/19 08:31:08;;;;;;;0.00;0.00;;;;;;;18.59;51.83;101275.47;7361957;19;20462;-63
2022/06/19 08:33:34;;;;;;;0.10;0.10;;;;;;;18.65;51.71;101276.06;7361811;19;20017;-62
2022/06/19 08:36:04;;;;;;;0.00;0.00;;;;;;;18.83;51.73;101290.22;7359695;19;20616;-63
2022/06/19 08:38:37;;;;;;;0.00;0.00;;;;;;;18.82;52.01;101277.94;7361790;19;20710;-62
2022/06/19 08:41:41;;;;;;;0.10;0.10;;;;;;;19.04;51.83;101308.66;7359785;19;20580;-62
2022/06/19 08:44:15;;;;;;;0.00;0.00;;;;;;;19.03;50.90;101304.28;7253115;19;2004384;-62
2022/06/19 08:46:49;;;;;;;0.08;0.08;;;;;;;19.07;50.97;101292.63;7360545;19;20002;-62
2022/06/19 08:49:39;;;;;;;0.00;0.00;;;;;;;19.12;50.97;101295.91;7351134;19;20007;-63
2022/06/19 08:52:05;;;;;;;0.00;0.00;;;;;;;19.09;51.10;101302.19;7360722;19;20013;-62
2022/06/19 08:54:39;;;;;;;0.00;0.00;;;;;;;19.11;51.21;101304.75;7360616;19;20364;-62
2022/06/19 08:57:16;;;;;;;0.00;0.00;;;;;;;19.13;51.35;101300.28;7358103;19;20014;-62
2022/06/19 09:00:11;;;;;;;0.00;0.00;;;;;;;19.19;51.34;101297.31;7362648;19;20011;-62
2022/06/19 09:03:00;;;;;;;0.00;0.00;;;;;;;19.22;50.57;101291.88;7260237;19;2004332;-63
2022/06/19 09:05:44;;;;;;;0.10;0.10;;;;;;;19.33;50.90;101304.59;7357539;19;20464;-63
2022/06/19 09:08:19;;;;;;;0.10;0.10;;;;;;;19.37;50.09;101299.06;7363668;19;20033;-63
2022/06/19 09:10:51;;;;;;;0.00;0.00;;;;;;;19.50;50.11;101293.13;7360313;19;20124;-61
2022/06/19 09:13:42;;;;;;;0.10;0.10;;;;;;;19.58;49.85;101288.31;7352829;19;20023;-63
2022/06/19 09:16:26;;;;;;;0.10;0.10;;;;;;;19.64;49.46;101298.63;7252360;19;2004419;-63
2022/06/19 09:19:20;;;;;;;0.10;0.10;;;;;;;19.73;50.30;101298.16;7357077;19;20014;-62
2022/06/19 09:22:07;;;;;;;0.10;0.10;;;;;;;19.79;49.51;101297.00;7258841;19;2004487;-63
2022/06/19 09:24:53;;;;;;;0.10;0.10;;;;;;;19.83;49.80;101298.56;7254422;19;2004453;-63
2022/06/19 09:27:28;;;;;;;0.00;0.00;;;;;;;19.85;49.28;101297.53;7356473;19;20395;-61
2022/06/19 09:30:12;;;;;;;0.10;0.10;;;;;;;19.95;49.76;101279.34;7359144;19;20039;-60
2022/06/19 09:32:43;;;;;;;0.00;0.00;;;;;;;20.00;49.24;101279.97;7361271;19;20767;-63
2022/06/19 09:35:26;;;;;;;0.00;0.00;;;;;;;20.11;49.78;101276.75;7360828;19;20098;-61
2022/06/19 09:38:10;;;;;;;0.00;0.00;;;;;;;20.14;48.53;101281.91;7359675;19;20018;-62
2022/06/19 09:40:40;;;;;;;0.00;0.00;;;;;;;20.21;48.73;101291.22;7360424;19;20027;-63
2022/06/19 09:43:37;;;;;;;0.08;0.08;;;;;;;20.11;48.60;101287.34;7361211;19;20014;-63
2022/06/19 09:46:13;;;;;;;0.10;0.10;;;;;;;20.13;48.55;101312.00;7257917;19;2004528;-63
2022/06/19 09:48:56;;;;;;;0.00;0.00;;;;;;;20.02;48.49;101320.53;7365355;19;20011;-63
2022/06/19 09:51:24;;;;;;;0.00;0.00;;;;;;;19.96;48.83;101319.03;7367840;19;20031;-62
2022/06/19 09:54:02;;;;;;;0.00;0.00;;;;;;;19.99;48.85;101325.13;7367535;19;20014;-62
2022/06/19 09:56:37;;;;;;;0.00;0.00;;;;;;;19.98;48.74;101328.72;7366311;19;20006;-62
2022/06/19 09:59:05;;;;;;;0.03;0.03;;;;;;;19.98;49.03;101328.72;7364272;19;20038;-61
2022/06/19 10:01:31;;;;;;;0.05;0.05;;;;;;;19.88;48.68;101307.97;7365753;19;20018;-62
2022/06/19 10:04:22;;;;;;;0.00;0.00;;;;;;;20.07;48.94;101307.00;7361927;19;20006;-62
2022/06/19 10:06:54;;;;;;;0.00;0.00;;;;;;;20.14;49.23;101303.09;7261117;19;2004347;-63
2022/06/19 10:09:30;;;;;;;0.10;0.10;;;;;;;20.38;48.37;101315.06;7367184;19;20017;-63
2022/06/19 10:12:00;;;;;;;0.00;0.00;;;;;;;20.63;48.76;101322.56;7366610;19;20014;-63
2022/06/19 10:14:40;;;;;;;0.10;0.10;;;;;;;20.91;49.33;101316.59;7364712;19;20029;-63
2022/06/19 10:17:19;;;;;;;0.10;0.10;;;;;;;21.27;48.98;101302.16;7362495;19;20036;-63
2022/06/19 10:20:16;;;;;;;0.00;0.00;;;;;;;21.83;49.08;101321.06;7366353;19;20019;-62
2022/06/19 10:23:03;;;;;;;0.00;0.00;;;;;;;22.21;47.83;101310.78;7262644;19;2004398;-63
2022/06/19 10:25:44;;;;;;;;;;;;;;;22.48;48.52;101310.88;7365765;19;20015;-63
2022/06/19 10:28:27;;;;;;;0.10;0.10;;;;;;;22.65;45.65;101312.44;7360719;19;19922;-63
2022/06/19 10:31:16;;;;;;;0.10;0.10;;;;;;;22.75;45.76;101308.25;7360250;19;20026;-63
2022/06/19 10:33:41;;;;;;;0.10;0.10;;;;;;;22.64;43.70;101314.25;7359020;19;20010;-63
2022/06/19 10:36:15;;;;;;;0.10;0.10;;;;;;;22.64;44.75;101322.25;7362774;19;20011;-63
2022/06/19 10:38:54;;;;;;;0.10;0.10;;;;;;;22.57;44.13;101317.44;7362768;19;20014;-62
2022/06/19 10:42:06;;;;;;;0.10;0.10;;;;;;;22.45;44.61;101325.19;7355790;19;20021;-63
2022/06/19 10:44:46;;;;;;;0.00;0.00;;;;;;;22.30;44.80;101326.16;7254653;19;2004478;-63
2022/06/19 10:47:22;;;;;;;0.00;0.00;;;;;;;22.17;44.70;101335.88;7359478;19;20014;-62
2022/06/19 10:50:03;;;;;;;0.00;0.00;;;;;;;22.02;44.72;101337.63;7360910;19;20129;-62
2022/06/19 10:52:38;;;;;;;0.10;0.10;;;;;;;21.87;45.01;101339.38;7360469;19;20479;-62
2022/06/19 10:55:22;;;;;;;0.00;0.00;;;;;;;21.73;44.36;101331.38;7364392;19;20019;-61
2022/06/19 10:58:15;;;;;;;0.00;0.00;;;;;;;21.55;44.98;101330.69;7361824;19;20472;-63
2022/06/19 11:00:41;;;;;;;0.10;0.10;;;;;;;21.39;44.22;101338.69;7260205;19;2004438;-62
2022/06/19 11:06:11;;;;;;;0.10;0.10;;;;;;;21.09;45.09;101341.25;7261459;19;2004385;-63
2022/06/19 11:08:39;;;;;;;0.00;0.00;;;;;;;21.04;45.95;101353.09;7362602;19;20018;-62
2022/06/19 11:11:05;;;;;;;0.00;0.00;;;;;;;20.96;45.62;101346.38;7363519;19;20014;-62
2022/06/19 11:13:55;;;;;;;0.00;0.00;;;;;;;21.01;46.21;101342.63;7363041;19;20350;-62
2022/06/19 11:16:20;;;;;;;0.10;0.10;;;;;;;20.98;46.84;101333.91;7252745;19;2004295;-62
2022/06/19 11:18:48;;;;;;;0.00;0.00;;;;;;;21.10;46.76;101337.66;7359771;19;20018;-61
2022/06/19 11:21:18;;;;;;;0.10;0.10;;;;;;;21.28;46.24;101325.09;7359370;19;20343;-61
2022/06/19 11:23:46;;;;;;;0.10;0.10;;;;;;;21.54;46.70;101325.44;7360272;19;20010;-61
2022/06/19 11:26:22;;;;;;;0.10;0.10;;;;;;;21.91;46.56;101322.31;7360608;19;20007;-64
2022/06/19 11:28:57;;;;;;;0.10;0.10;;;;;;;22.34;46.33;101322.38;7360486;19;20010;-64
2022/06/19 11:31:33;;;;;;;0.00;0.00;;;;;;;23.09;45.30;101314.94;7350077;19;20002;-61
2022/06/19 11:37:46;;;;;;;0.07;0.07;;;;;;;24.96;44.59;101308.22;7260126;19;2004985;-64
2022/06/19 11:40:19;;;;;;;0.10;0.10;;;;;;;25.52;41.64;101305.81;7255320;19;2004322;-64
2022/06/19 11:42:50;;;;;;;0.03;0.03;;;;;;;25.84;40.37;101310.56;7355529;19;20002;-62
2022/06/19 11:45:15;;;;;;;0.10;0.10;;;;;;;26.00;38.89;101311.06;7357048;19;20010;-63
2022/06/19 11:47:45;;;;;;;0.00;0.00;;;;;;;26.24;39.56;101313.66;7361339;19;20011;-64
2022/06/19 11:50:13;;;;;;;0.10;0.10;;;;;;;26.30;37.22;101314.97;7363581;19;20007;-63
2022/06/19 11:52:44;;;;;;;0.00;0.00;;;;;;;26.24;36.20;101313.66;7363239;19;20038;-64
2022/06/19 11:55:30;;;;;;;0.10;0.10;;;;;;;26.06;36.91;101309.75;7362935;19;20553;-64